createdAt,value
2018-11-11T00:00:50.249Z,8.88
2018-11-11T00:01:53.570Z,9.03
2018-11-11T00:02:56.909Z,8.65
2018-11-11T00:04:00.240Z,9.30
2018-11-11T00:05:03.659Z,9.90
2018-11-11T00:06:06.968Z,8.08
2018-11-11T00:07:10.275Z,9.73
2018-11-11T00:08:13.588Z,8.83
2018-11-11T00:09:16.916Z,9.15
2018-11-11T00:10:20.272Z,8.40
2018-11-11T00:11:23.650Z,8.68
2018-11-11T00:12:27.016Z,8.93
2018-11-11T00:13:30.338Z,9.50
2018-11-11T00:14:33.675Z,9.70
2018-11-11T00:15:37.025Z,9.80
2018-11-11T00:16:40.339Z,9.50
2018-11-11T00:17:44.720Z,9.68
2018-11-11T00:18:48.035Z,8.25
2018-11-11T00:19:51.407Z,9.73
2018-11-11T00:20:54.739Z,10.65
2018-11-11T00:21:58.075Z,9.23
2018-11-11T00:23:01.456Z,9.38
2018-11-11T00:24:04.811Z,9.40
2018-11-11T00:25:08.378Z,9.98
2018-11-11T00:26:11.706Z,9.53
2018-11-11T00:27:15.045Z,10.43
2018-11-11T00:28:18.368Z,9.88
2018-11-11T00:29:21.709Z,9.18
2018-11-11T00:30:25.083Z,9.83
2018-11-11T00:31:28.408Z,11.20
2018-11-11T00:32:31.751Z,10.32
2018-11-11T00:33:35.076Z,11.12
2018-11-11T00:34:38.403Z,10.00
2018-11-11T00:35:41.803Z,11.03
2018-11-11T00:36:45.135Z,10.15
2018-11-11T00:37:48.463Z,10.70
2018-11-11T00:38:51.876Z,10.30
2018-11-11T00:39:55.199Z,11.33
2018-11-11T00:40:58.559Z,10.03
2018-11-11T00:42:01.909Z,10.40
2018-11-11T00:43:05.526Z,9.78
2018-11-11T00:44:09.023Z,10.08
2018-11-11T00:45:13.148Z,10.10
2018-11-11T00:46:16.526Z,10.15
2018-11-11T00:47:19.866Z,11.20
2018-11-11T00:48:23.215Z,11.08
2018-11-11T00:49:26.652Z,12.65
2018-11-11T00:50:29.989Z,11.70
2018-11-11T00:51:33.384Z,12.15
2018-11-11T00:52:36.730Z,10.63
2018-11-11T00:53:40.075Z,11.25
2018-11-11T00:54:43.414Z,11.55
2018-11-11T00:55:47.027Z,11.45
2018-11-11T00:56:50.405Z,11.93
2018-11-11T00:57:53.738Z,11.93
2018-11-11T00:58:57.050Z,12.10
2018-11-11T01:00:00.386Z,11.85
2018-11-11T01:01:03.720Z,11.48
2018-11-11T01:02:07.099Z,11.43
2018-11-11T01:03:10.498Z,11.50
2018-11-11T01:04:13.823Z,12.63
2018-11-11T01:05:17.144Z,13.62
2018-11-11T01:06:20.515Z,11.30
2018-11-11T01:07:23.876Z,12.10
2018-11-11T01:08:27.242Z,11.97
2018-11-11T01:09:30.580Z,11.30
2018-11-11T01:10:33.912Z,13.35
2018-11-11T01:11:37.231Z,12.25
2018-11-11T01:12:41.580Z,12.03
2018-11-11T01:13:44.935Z,12.23
2018-11-11T01:14:48.254Z,13.58
2018-11-11T01:15:51.583Z,11.90
2018-11-11T01:16:54.975Z,12.03
2018-11-11T01:17:58.300Z,14.07
2018-11-11T01:19:01.619Z,12.30
2018-11-11T01:20:06.011Z,12.82
2018-11-11T01:21:09.352Z,12.88
2018-11-11T01:22:12.727Z,13.48
2018-11-11T01:23:16.039Z,12.28
2018-11-11T01:24:19.375Z,14.10
2018-11-11T01:25:22.724Z,13.85
2018-11-11T01:26:26.091Z,12.75
2018-11-11T01:27:29.457Z,12.15
2018-11-11T01:28:32.785Z,13.10
2018-11-11T01:29:36.120Z,12.82
2018-11-11T01:30:39.453Z,12.13
2018-11-11T01:31:42.786Z,11.95
2018-11-11T01:32:46.171Z,11.70
2018-11-11T01:33:49.499Z,12.18
2018-11-11T01:34:52.833Z,12.10
2018-11-11T01:35:56.213Z,11.90
2018-11-11T01:36:59.557Z,12.58
2018-11-11T01:38:02.931Z,12.28
2018-11-11T01:39:07.075Z,12.23
2018-11-11T01:40:10.439Z,12.75
2018-11-11T01:41:13.781Z,12.15
2018-11-11T01:42:17.135Z,12.75
2018-11-11T01:43:20.524Z,12.15
2018-11-11T01:44:23.853Z,13.22
2018-11-11T01:45:27.196Z,12.28
2018-11-11T01:46:30.524Z,13.78
2018-11-11T01:47:33.862Z,12.47
2018-11-11T01:48:37.287Z,13.05
2018-11-11T01:49:40.872Z,11.70
2018-11-11T01:50:44.224Z,12.82
2018-11-11T01:51:47.567Z,12.93
2018-11-11T01:52:50.909Z,13.95
2018-11-11T01:53:54.280Z,13.83
2018-11-11T01:54:57.603Z,13.22
2018-11-11T01:56:00.939Z,14.80
2018-11-11T01:57:04.306Z,14.35
2018-11-11T01:58:07.651Z,13.68
2018-11-11T01:59:11.023Z,13.45
2018-11-11T02:00:16.207Z,15.00
2018-11-11T02:01:19.532Z,12.80
2018-11-11T02:02:22.871Z,13.80
2018-11-11T02:03:26.195Z,12.55
2018-11-11T02:04:29.627Z,15.23
2018-11-11T02:05:32.956Z,13.72
2018-11-11T02:06:36.287Z,14.33
2018-11-11T02:07:39.917Z,13.75
2018-11-11T02:08:49.780Z,12.33
2018-11-11T02:09:53.243Z,13.03
2018-11-11T02:10:56.545Z,13.70
2018-11-11T02:11:59.881Z,14.45
2018-11-11T02:13:03.227Z,14.13
2018-11-11T02:14:06.562Z,14.40
2018-11-11T02:15:11.247Z,13.35
2018-11-11T02:16:14.585Z,14.35
2018-11-11T02:17:17.905Z,13.40
2018-11-11T02:18:21.227Z,13.15
2018-11-11T02:19:24.583Z,13.98
2018-11-11T02:20:28.023Z,12.75
2018-11-11T02:21:31.564Z,15.13
2018-11-11T02:22:34.891Z,14.30
2018-11-11T02:23:38.251Z,13.65
2018-11-11T02:24:41.588Z,14.53
2018-11-11T02:25:44.969Z,14.15
2018-11-11T02:26:48.296Z,15.43
2018-11-11T02:27:51.635Z,15.70
2018-11-11T02:28:54.991Z,15.95
2018-11-11T02:29:58.377Z,14.33
2018-11-11T02:31:01.749Z,14.70
2018-11-11T02:32:05.493Z,13.93
2018-11-11T02:33:08.891Z,15.00
2018-11-11T02:34:12.255Z,15.63
2018-11-11T02:35:15.608Z,15.05
2018-11-11T02:36:18.934Z,13.95
2018-11-11T02:37:22.287Z,14.93
2018-11-11T02:38:25.671Z,14.60
2018-11-11T02:39:29.056Z,13.35
2018-11-11T02:40:32.383Z,14.53
2018-11-11T02:41:35.710Z,15.32
2018-11-11T02:42:39.031Z,14.60
2018-11-11T02:43:42.393Z,15.15
2018-11-11T02:44:45.735Z,14.63
2018-11-11T02:45:49.060Z,15.25
2018-11-11T02:46:52.387Z,13.38
2018-11-11T02:47:55.707Z,13.93
2018-11-11T02:48:59.168Z,14.30
2018-11-11T02:50:02.507Z,13.25
2018-11-11T02:51:05.862Z,13.75
2018-11-11T02:52:09.198Z,14.33
2018-11-11T02:53:12.575Z,14.25
2018-11-11T02:54:16.380Z,13.93
2018-11-11T02:55:19.716Z,14.35
2018-11-11T02:56:23.123Z,13.88
2018-11-11T02:57:26.500Z,13.43
2018-11-11T02:58:29.877Z,13.55
2018-11-11T02:59:33.211Z,14.87
2018-11-11T03:00:36.551Z,14.65
2018-11-11T03:01:39.951Z,14.35
2018-11-11T03:02:44.091Z,14.80
2018-11-11T03:03:47.416Z,15.15
2018-11-11T03:04:50.738Z,14.95
2018-11-11T03:05:54.075Z,15.20
2018-11-11T03:06:57.440Z,15.20
2018-11-11T03:08:00.780Z,14.33
2018-11-11T03:09:06.175Z,13.50
2018-11-11T03:10:10.760Z,14.83
2018-11-11T03:11:14.087Z,15.05
2018-11-11T03:12:17.464Z,15.13
2018-11-11T03:13:20.799Z,14.28
2018-11-11T03:14:24.175Z,13.72
2018-11-11T03:15:27.510Z,13.38
2018-11-11T03:16:30.832Z,15.35
2018-11-11T03:17:34.202Z,14.03
2018-11-11T03:18:38.227Z,13.03
2018-11-11T03:19:41.641Z,15.65
2018-11-11T03:20:44.982Z,14.90
2018-11-11T03:21:48.383Z,14.73
2018-11-11T03:22:51.837Z,12.82
2018-11-11T03:23:55.167Z,14.75
2018-11-11T03:24:58.537Z,13.90
2018-11-11T03:26:01.884Z,14.03
2018-11-11T03:27:05.232Z,14.23
2018-11-11T03:28:08.568Z,13.60
2018-11-11T03:29:11.901Z,14.43
2018-11-11T03:30:16.461Z,14.07
2018-11-11T03:31:19.808Z,13.78
2018-11-11T03:32:23.145Z,13.83
2018-11-11T03:33:26.482Z,13.85
2018-11-11T03:34:29.837Z,13.93
2018-11-11T03:35:33.169Z,13.90
2018-11-11T03:36:36.537Z,14.73
2018-11-11T03:37:40.239Z,13.15
2018-11-11T03:38:43.813Z,13.30
2018-11-11T03:39:47.139Z,13.93
2018-11-11T03:40:50.471Z,14.58
2018-11-11T03:41:53.885Z,13.18
2018-11-11T03:42:57.234Z,13.48
2018-11-11T03:44:00.621Z,13.50
2018-11-11T03:45:04.004Z,13.75
2018-11-11T03:46:07.336Z,12.70
2018-11-11T03:47:10.664Z,13.10
2018-11-11T03:48:13.996Z,14.45
2018-11-11T03:49:17.371Z,13.95
2018-11-11T03:50:20.707Z,14.03
2018-11-11T03:51:24.035Z,13.90
2018-11-11T03:52:27.379Z,12.18
2018-11-11T03:53:30.750Z,13.48
2018-11-11T03:54:34.108Z,12.37
2018-11-11T03:55:37.449Z,12.45
2018-11-11T03:56:40.792Z,14.73
2018-11-11T03:57:44.148Z,12.80
2018-11-11T03:58:47.563Z,12.18
2018-11-11T03:59:50.874Z,12.85
2018-11-11T04:00:54.827Z,11.97
2018-11-11T04:01:58.191Z,12.90
2018-11-11T04:03:01.576Z,12.25
2018-11-11T04:04:05.213Z,11.68
2018-11-11T04:05:09.655Z,13.58
2018-11-11T04:06:13.022Z,11.57
2018-11-11T04:07:16.367Z,12.47
2018-11-11T04:08:19.710Z,12.73
2018-11-11T04:09:23.068Z,12.50
2018-11-11T04:10:26.430Z,11.85
2018-11-11T04:11:29.763Z,12.35
2018-11-11T04:12:33.120Z,13.03
2018-11-11T04:13:36.716Z,13.55
2018-11-11T04:14:40.080Z,13.98
2018-11-11T04:15:43.394Z,13.22
2018-11-11T04:16:46.724Z,12.58
2018-11-11T04:17:50.061Z,12.43
2018-11-11T04:18:53.447Z,11.90
2018-11-11T04:19:56.810Z,13.05
2018-11-11T04:21:00.194Z,12.88
2018-11-11T04:22:21.142Z,12.80
2018-11-11T04:23:24.470Z,12.73
2018-11-11T04:24:27.796Z,13.18
2018-11-11T04:25:31.161Z,12.25
2018-11-11T04:26:34.578Z,12.23
2018-11-11T04:27:37.926Z,13.18
2018-11-11T04:28:41.292Z,12.93
2018-11-11T04:29:44.616Z,13.62
2018-11-11T04:30:47.971Z,13.48
2018-11-11T04:31:51.293Z,13.25
2018-11-11T04:32:54.659Z,12.82
2018-11-11T04:33:58.216Z,13.55
2018-11-11T04:35:01.539Z,12.98
2018-11-11T04:36:05.110Z,12.10
2018-11-11T04:37:09.023Z,12.65
2018-11-11T04:38:12.363Z,13.85
2018-11-11T04:39:15.770Z,13.90
2018-11-11T04:40:19.111Z,15.10
2018-11-11T04:41:22.450Z,14.43
2018-11-11T04:42:25.790Z,13.90
2018-11-11T04:43:29.118Z,13.13
2018-11-11T04:44:32.448Z,14.63
2018-11-11T04:45:35.835Z,12.98
2018-11-11T04:46:39.208Z,14.15
2018-11-11T04:47:43.172Z,13.18
2018-11-11T04:48:46.535Z,13.53
2018-11-11T04:49:49.873Z,13.32
2018-11-11T04:50:53.220Z,14.18
2018-11-11T04:51:56.539Z,13.62
2018-11-11T04:52:59.903Z,12.68
2018-11-11T04:54:03.231Z,13.55
2018-11-11T04:55:07.284Z,13.90
2018-11-11T04:56:10.655Z,13.15
2018-11-11T04:57:14.000Z,12.60
2018-11-11T04:58:17.355Z,13.30
2018-11-11T04:59:20.721Z,12.65
2018-11-11T05:00:24.057Z,13.60
2018-11-11T05:01:27.436Z,14.07
2018-11-11T05:02:30.743Z,12.10
2018-11-11T05:03:34.119Z,13.10
2018-11-11T05:04:37.519Z,13.40
2018-11-11T05:05:40.823Z,13.13
2018-11-11T05:06:44.178Z,14.53
2018-11-11T05:07:47.534Z,11.75
2018-11-11T05:08:50.889Z,13.83
2018-11-11T05:09:54.260Z,13.60
2018-11-11T05:10:57.627Z,13.40
2018-11-11T05:12:00.956Z,13.03
2018-11-11T05:13:04.751Z,13.70
2018-11-11T05:14:08.677Z,13.13
2018-11-11T05:15:13.177Z,13.22
2018-11-11T05:16:16.506Z,12.40
2018-11-11T05:17:19.831Z,12.25
2018-11-11T05:18:23.191Z,12.18
2018-11-11T05:19:26.541Z,12.70
2018-11-11T05:20:29.895Z,13.10
2018-11-11T05:21:33.222Z,11.63
2018-11-11T05:22:36.624Z,11.80
2018-11-11T05:23:39.964Z,11.53
2018-11-11T05:24:43.305Z,13.15
2018-11-11T05:25:46.631Z,12.98
2018-11-11T05:26:49.983Z,12.15
2018-11-11T05:27:53.364Z,12.03
2018-11-11T05:28:56.730Z,11.60
2018-11-11T05:30:00.069Z,12.23
2018-11-11T05:31:03.430Z,12.20
2018-11-11T05:32:06.759Z,11.73
2018-11-11T05:33:10.103Z,11.20
2018-11-11T05:34:13.439Z,10.20
2018-11-11T05:35:16.764Z,11.30
2018-11-11T05:36:20.095Z,10.23
2018-11-11T05:37:23.453Z,10.50
2018-11-11T05:38:26.787Z,9.73
2018-11-11T05:39:30.132Z,10.55
2018-11-11T05:40:33.499Z,9.88
2018-11-11T05:41:36.820Z,9.88
2018-11-11T05:42:40.877Z,8.85
2018-11-11T05:43:44.254Z,9.63
2018-11-11T05:44:47.584Z,10.15
2018-11-11T05:45:50.944Z,8.90
2018-11-11T05:46:54.334Z,8.88
2018-11-11T05:47:57.672Z,8.55
2018-11-11T05:49:01.003Z,9.48
2018-11-11T05:50:04.423Z,8.25
2018-11-11T05:51:07.798Z,8.58
2018-11-11T05:52:11.140Z,8.45
2018-11-11T05:53:14.471Z,8.28
2018-11-11T05:54:17.831Z,8.45
2018-11-11T05:55:21.161Z,8.25
2018-11-11T05:56:24.494Z,7.55
2018-11-11T05:57:27.867Z,9.55
2018-11-11T05:58:31.197Z,7.70
2018-11-11T05:59:34.537Z,7.50
2018-11-11T06:00:37.883Z,7.30
2018-11-11T06:01:41.260Z,7.55
2018-11-11T06:02:45.044Z,8.45
2018-11-11T06:03:48.379Z,7.80
2018-11-11T06:04:51.781Z,7.10
2018-11-11T06:05:55.106Z,8.43
2018-11-11T06:06:58.439Z,7.72
2018-11-11T06:08:01.835Z,7.95
2018-11-11T06:09:08.340Z,7.17
2018-11-11T06:10:13.011Z,8.40
2018-11-11T06:11:16.331Z,7.75
2018-11-11T06:12:19.674Z,8.50
2018-11-11T06:13:23.053Z,8.83
2018-11-11T06:14:26.390Z,8.40
2018-11-11T06:15:29.720Z,8.15
2018-11-11T06:16:33.086Z,7.72
2018-11-11T06:17:36.926Z,8.13
2018-11-11T06:18:40.271Z,8.08
2018-11-11T06:19:43.704Z,8.28
2018-11-11T06:20:47.041Z,7.83
2018-11-11T06:21:50.418Z,7.58
2018-11-11T06:22:53.735Z,7.62
2018-11-11T06:23:57.088Z,8.30
2018-11-11T06:25:00.407Z,8.35
2018-11-11T06:26:03.762Z,8.08
2018-11-11T06:27:07.098Z,8.85
2018-11-11T06:28:10.430Z,8.63
2018-11-11T06:29:13.787Z,6.55
2018-11-11T06:30:17.110Z,7.72
2018-11-11T06:31:20.473Z,8.60
2018-11-11T06:32:23.801Z,7.22
2018-11-11T06:33:27.128Z,8.40
2018-11-11T06:34:30.478Z,7.55
2018-11-11T06:35:33.815Z,7.45
2018-11-11T06:36:37.140Z,6.95
2018-11-11T06:37:40.885Z,7.60
2018-11-11T06:38:44.203Z,7.28
2018-11-11T06:39:47.527Z,7.33
2018-11-11T06:40:50.903Z,7.75
2018-11-11T06:41:54.219Z,6.92
2018-11-11T06:42:57.583Z,7.33
2018-11-11T06:44:00.895Z,6.92
2018-11-11T06:45:04.966Z,7.42
2018-11-11T06:46:08.363Z,6.80
2018-11-11T06:47:11.697Z,6.75
2018-11-11T06:48:15.191Z,7.12
2018-11-11T06:49:18.434Z,6.78
2018-11-11T06:50:21.800Z,6.25
2018-11-11T06:51:25.115Z,6.95
2018-11-11T06:52:28.418Z,6.78
2018-11-11T06:53:31.767Z,6.33
2018-11-11T06:54:35.094Z,7.03
2018-11-11T06:55:38.535Z,6.08
2018-11-11T06:56:41.862Z,6.33
2018-11-11T06:57:45.220Z,6.33
2018-11-11T06:58:48.540Z,6.08
2018-11-11T06:59:58.182Z,7.20
2018-11-11T07:01:01.527Z,7.25
2018-11-11T07:02:05.420Z,7.25
2018-11-11T07:03:20.216Z,6.62
2018-11-11T07:04:23.600Z,5.97
2018-11-11T07:05:26.935Z,6.50
2018-11-11T07:06:30.828Z,7.42
2018-11-11T07:07:34.188Z,6.33
2018-11-11T07:08:37.514Z,7.00
2018-11-11T07:09:40.877Z,6.25
2018-11-11T07:10:44.271Z,6.25
2018-11-11T07:11:47.606Z,7.03
2018-11-11T07:12:50.958Z,7.30
2018-11-11T07:13:54.428Z,6.50
2018-11-11T07:14:57.803Z,6.05
2018-11-11T07:16:01.159Z,6.37
2018-11-11T07:17:04.511Z,7.15
2018-11-11T07:18:07.843Z,5.75
2018-11-11T07:19:11.377Z,6.35
2018-11-11T07:20:15.040Z,6.60
2018-11-11T07:21:18.810Z,7.00
2018-11-11T07:22:22.131Z,5.83
2018-11-11T07:23:25.552Z,6.75
2018-11-11T07:24:28.868Z,6.25
2018-11-11T07:25:32.203Z,7.45
2018-11-11T07:26:35.541Z,5.80
2018-11-11T07:27:38.936Z,6.70
2018-11-11T07:28:42.300Z,6.95
2018-11-11T07:29:45.629Z,6.47
2018-11-11T07:30:48.976Z,6.25
2018-11-11T07:31:52.350Z,6.45
2018-11-11T07:32:55.676Z,6.85
2018-11-11T07:33:58.994Z,6.53
2018-11-11T07:35:02.352Z,6.25
2018-11-11T07:36:06.726Z,6.45
2018-11-11T07:37:10.000Z,6.75
2018-11-11T07:38:13.313Z,6.62
2018-11-11T07:39:16.639Z,6.97
2018-11-11T07:40:20.116Z,6.62
2018-11-11T07:41:23.510Z,6.37
2018-11-11T07:42:27.002Z,7.50
2018-11-11T07:43:30.312Z,6.97
2018-11-11T07:44:33.678Z,6.78
2018-11-11T07:45:36.999Z,6.50
2018-11-11T07:46:40.311Z,6.33
2018-11-11T07:47:43.668Z,7.85
2018-11-11T07:48:47.023Z,6.72
2018-11-11T07:49:50.340Z,6.53
2018-11-11T07:50:53.688Z,6.53
2018-11-11T07:51:57.123Z,7.20
2018-11-11T07:54:10.091Z,7.28
2018-11-11T07:55:13.496Z,6.35
2018-11-11T07:56:16.813Z,6.80
2018-11-11T07:57:20.140Z,6.35
2018-11-11T07:58:23.533Z,6.70
2018-11-11T07:59:26.827Z,6.80
2018-11-11T08:00:30.179Z,6.65
2018-11-11T08:01:33.505Z,7.08
2018-11-11T08:02:36.837Z,7.80
2018-11-11T08:03:40.215Z,6.75
2018-11-11T08:04:43.542Z,7.25
2018-11-11T08:05:46.855Z,6.78
2018-11-11T08:06:50.197Z,6.90
2018-11-11T08:07:53.512Z,7.60
2018-11-11T08:08:56.865Z,7.47
2018-11-11T08:10:00.242Z,5.75
2018-11-11T08:11:15.124Z,6.95
2018-11-11T08:12:18.373Z,7.42
2018-11-11T08:13:21.768Z,6.80
2018-11-11T08:14:25.628Z,6.28
2018-11-11T08:15:28.950Z,6.90
2018-11-11T08:16:32.418Z,6.60
2018-11-11T08:17:35.777Z,7.05
2018-11-11T08:18:39.092Z,7.10
2018-11-11T08:19:42.426Z,7.65
2018-11-11T08:20:45.800Z,7.08
2018-11-11T08:21:49.130Z,6.83
2018-11-11T08:22:52.455Z,7.40
2018-11-11T08:23:55.879Z,7.28
2018-11-11T08:24:59.204Z,6.85
2018-11-11T08:26:02.524Z,6.60
2018-11-11T08:27:05.847Z,6.65
2018-11-11T08:28:09.212Z,5.70
2018-11-11T08:29:12.527Z,6.45
2018-11-11T08:30:15.855Z,6.00
2018-11-11T08:31:19.183Z,6.90
2018-11-11T08:32:22.645Z,6.58
2018-11-11T08:33:25.999Z,7.70
2018-11-11T08:34:29.351Z,6.20
2018-11-11T08:35:33.465Z,6.17
2018-11-11T08:36:36.995Z,6.42
2018-11-11T08:37:40.392Z,5.65
2018-11-11T08:38:43.710Z,5.78
2018-11-11T08:39:47.037Z,5.85
2018-11-11T08:40:50.404Z,6.65
2018-11-11T08:41:53.789Z,6.65
2018-11-11T08:42:57.155Z,7.12
2018-11-11T08:44:00.505Z,6.78
2018-11-11T08:45:04.036Z,6.80
2018-11-11T08:46:07.346Z,6.83
2018-11-11T08:47:10.724Z,5.80
2018-11-11T08:48:14.074Z,6.55
2018-11-11T08:49:17.420Z,5.97
2018-11-11T08:50:20.754Z,6.60
2018-11-11T08:51:24.094Z,6.12
2018-11-11T08:52:27.448Z,6.15
2018-11-11T08:53:30.776Z,6.20
2018-11-11T08:54:34.091Z,6.03
2018-11-11T08:55:37.420Z,5.55
2018-11-11T08:56:40.787Z,5.50
2018-11-11T08:57:44.145Z,5.83
2018-11-11T08:58:47.441Z,6.05
2018-11-11T08:59:50.799Z,5.67
2018-11-11T09:00:54.120Z,6.12
2018-11-11T09:01:57.488Z,6.28
2018-11-11T09:03:00.829Z,5.28
2018-11-11T09:04:05.748Z,4.90
2018-11-11T09:05:09.123Z,4.67
2018-11-11T09:06:12.484Z,5.50
2018-11-11T09:07:15.815Z,6.42
2018-11-11T09:08:19.193Z,5.70
2018-11-11T09:09:22.547Z,6.60
2018-11-11T09:10:25.873Z,5.90
2018-11-11T09:11:29.224Z,5.78
2018-11-11T09:12:32.630Z,6.35
2018-11-11T09:13:35.983Z,6.17
2018-11-11T09:14:39.300Z,5.45
2018-11-11T09:15:42.616Z,5.78
2018-11-11T09:16:45.943Z,6.00
2018-11-11T09:17:49.261Z,6.03
2018-11-11T09:18:52.639Z,6.10
2018-11-11T09:19:55.961Z,6.42
2018-11-11T09:20:59.319Z,5.85
2018-11-11T09:22:02.648Z,5.60
2018-11-11T09:23:05.982Z,5.55
2018-11-11T09:24:09.319Z,6.40
2018-11-11T09:25:12.676Z,6.05
2018-11-11T09:26:16.000Z,6.30
2018-11-11T09:27:19.328Z,6.15
2018-11-11T09:28:22.664Z,6.70
2018-11-11T09:29:25.999Z,6.22
2018-11-11T09:30:29.480Z,5.20
2018-11-11T09:31:32.730Z,5.75
2018-11-11T09:32:36.061Z,5.28
2018-11-11T09:33:39.543Z,5.92
2018-11-11T09:34:42.864Z,4.60
2018-11-11T09:35:46.179Z,5.87
2018-11-11T09:36:49.538Z,4.60
2018-11-11T09:37:52.854Z,5.53
2018-11-11T09:38:56.236Z,5.35
2018-11-11T09:39:59.593Z,5.40
2018-11-11T09:41:02.915Z,5.70
2018-11-11T09:42:06.475Z,5.53
2018-11-11T09:43:09.795Z,5.47
2018-11-11T09:44:13.135Z,4.75
2018-11-11T09:45:16.858Z,5.30
2018-11-11T09:46:20.180Z,5.10
2018-11-11T09:47:23.528Z,5.25
2018-11-11T09:48:26.881Z,5.45
2018-11-11T09:49:30.240Z,5.70
2018-11-11T09:50:33.615Z,5.42
2018-11-11T09:51:36.938Z,4.90
2018-11-11T09:52:40.422Z,4.15
2018-11-11T09:53:43.724Z,5.30
2018-11-11T09:54:47.101Z,5.35
2018-11-11T09:55:50.459Z,4.15
2018-11-11T09:56:53.802Z,4.75
2018-11-11T09:57:57.125Z,4.87
2018-11-11T09:59:00.478Z,4.28
2018-11-11T10:00:03.866Z,4.58
2018-11-11T10:01:07.284Z,4.60
2018-11-11T10:02:10.737Z,4.55
2018-11-11T10:03:26.653Z,4.22
2018-11-11T10:04:36.664Z,3.98
2018-11-11T10:05:55.122Z,4.28
2018-11-11T10:09:07.265Z,4.15
2018-11-11T10:10:15.976Z,4.17
2018-11-11T10:11:30.669Z,4.92
2018-11-11T10:14:41.736Z,4.55
2018-11-11T10:15:50.108Z,5.05
2018-11-11T10:17:13.988Z,4.78
2018-11-11T10:18:22.400Z,4.40
2018-11-11T10:19:43.659Z,4.53
2018-11-11T10:20:53.818Z,4.17
2018-11-11T10:22:04.319Z,5.12
2018-11-11T10:23:12.900Z,4.30
2018-11-11T10:24:26.696Z,4.05
2018-11-11T10:25:35.374Z,4.62
2018-11-11T10:26:50.805Z,3.52
2018-11-11T10:28:00.168Z,3.72
2018-11-11T10:29:08.973Z,4.20
2018-11-11T10:30:17.584Z,4.65
2018-11-11T10:31:57.768Z,4.12
2018-11-11T10:33:18.068Z,4.12
2018-11-11T10:36:29.374Z,4.70
2018-11-11T10:37:36.199Z,4.00
2018-11-11T10:38:44.162Z,4.10
2018-11-11T10:40:50.570Z,4.20
2018-11-11T10:41:58.732Z,3.27
2018-11-11T10:43:10.347Z,4.20
2018-11-11T10:44:24.429Z,3.58
2018-11-11T10:45:32.760Z,3.90
2018-11-11T10:46:40.212Z,3.80
2018-11-11T10:48:05.759Z,3.62
2018-11-11T10:49:10.746Z,3.58
2018-11-11T10:50:21.441Z,4.60
2018-11-11T10:51:24.764Z,4.08
2018-11-11T10:52:28.076Z,3.75
2018-11-11T10:53:31.448Z,4.00
2018-11-11T10:54:34.747Z,3.80
2018-11-11T10:55:38.051Z,3.33
2018-11-11T10:56:41.375Z,4.03
2018-11-11T10:57:44.687Z,3.85
2018-11-11T10:58:48.043Z,3.08
2018-11-11T10:59:51.387Z,3.70
2018-11-11T11:01:00.121Z,3.37
2018-11-11T11:02:08.759Z,3.58
2018-11-11T11:03:17.508Z,3.37
2018-11-11T11:04:20.831Z,3.65
2018-11-11T11:05:24.203Z,3.45
2018-11-11T11:06:32.997Z,3.67
2018-11-11T11:07:36.373Z,3.45
2018-11-11T11:08:43.908Z,3.52
2018-11-11T11:09:47.233Z,3.62
2018-11-11T11:10:50.566Z,3.72
2018-11-11T11:11:53.936Z,3.40
2018-11-11T11:12:57.245Z,3.20
2018-11-11T11:14:00.678Z,3.40
2018-11-11T11:15:03.952Z,3.45
2018-11-11T11:16:07.267Z,3.30
2018-11-11T11:17:10.607Z,2.98
2018-11-11T11:18:13.955Z,3.02
2018-11-11T11:19:17.311Z,3.60
2018-11-11T11:20:20.630Z,3.12
2018-11-11T11:21:23.939Z,3.62
2018-11-11T11:22:27.283Z,3.22
2018-11-11T11:23:30.593Z,3.70
2018-11-11T11:24:33.926Z,3.35
2018-11-11T11:25:37.279Z,3.40
2018-11-11T11:26:40.563Z,3.15
2018-11-11T11:27:43.907Z,3.83
2018-11-11T11:28:47.235Z,3.92
2018-11-11T11:29:50.539Z,3.58
2018-11-11T11:30:53.893Z,3.87
2018-11-11T11:31:57.227Z,3.42
2018-11-11T11:33:00.591Z,3.27
2018-11-11T11:34:03.963Z,3.00
2018-11-11T11:35:08.208Z,3.00
2018-11-11T11:36:11.508Z,3.55
2018-11-11T11:37:14.856Z,2.87
2018-11-11T11:38:18.193Z,3.40
2018-11-11T11:39:21.582Z,3.22
2018-11-11T11:40:24.919Z,3.37
2018-11-11T11:41:28.372Z,3.30
2018-11-11T11:42:31.673Z,3.60
2018-11-11T11:43:35.102Z,3.83
2018-11-11T11:44:38.459Z,3.40
2018-11-11T11:45:41.791Z,3.33
2018-11-11T11:46:45.120Z,3.70
2018-11-11T11:47:48.439Z,4.10
2018-11-11T11:48:51.743Z,3.52
2018-11-11T11:49:55.119Z,3.80
2018-11-11T11:50:58.495Z,3.17
2018-11-11T11:52:01.842Z,3.50
2018-11-11T11:53:05.316Z,3.15
2018-11-11T11:54:08.612Z,3.58
2018-11-11T11:55:12.580Z,3.52
2018-11-11T11:56:15.903Z,3.10
2018-11-11T11:57:19.237Z,3.92
2018-11-11T11:58:24.155Z,2.98
2018-11-11T11:59:27.518Z,3.50
2018-11-11T12:00:30.877Z,3.70
2018-11-11T12:01:34.232Z,3.27
2018-11-11T12:02:37.662Z,2.80
2018-11-11T12:03:41.029Z,3.60
2018-11-11T12:04:44.378Z,3.40
2018-11-11T12:05:47.947Z,3.15
2018-11-11T12:06:51.291Z,3.22
2018-11-11T12:07:54.646Z,3.27
2018-11-11T12:08:58.059Z,3.42
2018-11-11T12:10:01.360Z,3.60
2018-11-11T12:11:04.847Z,3.20
2018-11-11T12:12:08.170Z,3.30
2018-11-11T12:13:12.418Z,3.60
2018-11-11T12:14:15.776Z,3.70
2018-11-11T12:15:19.111Z,3.33
2018-11-11T12:16:22.532Z,3.57
2018-11-11T12:17:25.878Z,3.60
2018-11-11T12:18:29.211Z,3.35
2018-11-11T12:19:32.549Z,3.27
2018-11-11T12:20:36.432Z,3.35
2018-11-11T12:21:39.812Z,3.25
2018-11-11T12:22:43.143Z,3.22
2018-11-11T12:23:46.514Z,4.47
2018-11-11T12:24:49.839Z,3.50
2018-11-11T12:25:53.175Z,3.90
2018-11-11T12:26:56.513Z,2.72
2018-11-11T12:27:59.859Z,3.40
2018-11-11T12:29:03.261Z,2.65
2018-11-11T12:30:07.647Z,3.20
2018-11-11T12:31:10.975Z,2.95
2018-11-11T12:32:14.308Z,3.10
2018-11-11T12:33:17.721Z,3.20
2018-11-11T12:34:21.079Z,3.33
2018-11-11T12:35:24.419Z,3.70
2018-11-11T12:36:27.735Z,3.20
2018-11-11T12:37:31.062Z,2.75
2018-11-11T12:38:34.379Z,3.87
2018-11-11T12:39:37.835Z,3.70
2018-11-11T12:40:41.103Z,3.55
2018-11-11T12:41:50.787Z,3.75
2018-11-11T12:42:54.094Z,3.33
2018-11-11T12:43:57.407Z,3.17
2018-11-11T12:45:00.767Z,3.05
2018-11-11T12:46:04.149Z,3.20
2018-11-11T12:47:07.523Z,2.80
2018-11-11T12:48:10.821Z,2.77
2018-11-11T12:49:14.451Z,2.55
2018-11-11T12:50:17.818Z,2.20
2018-11-11T12:51:21.126Z,2.20
2018-11-11T12:52:24.446Z,2.30
2018-11-11T12:53:28.006Z,2.65
2018-11-11T12:54:31.324Z,1.80
2018-11-11T12:55:34.685Z,2.00
2018-11-11T12:56:38.020Z,2.30
2018-11-11T12:57:41.345Z,2.37
2018-11-11T12:58:44.763Z,2.15
2018-11-11T12:59:48.112Z,2.08
2018-11-11T13:00:51.545Z,2.02
2018-11-11T13:01:54.908Z,2.00
2018-11-11T13:02:58.236Z,2.52
2018-11-11T13:04:01.546Z,1.57
2018-11-11T13:05:05.522Z,1.62
2018-11-11T13:06:08.840Z,1.67
2018-11-11T13:07:12.208Z,2.02
2018-11-11T13:08:15.537Z,1.40
2018-11-11T13:09:18.887Z,1.55
2018-11-11T13:10:22.207Z,1.32
2018-11-11T13:11:25.585Z,1.62
2018-11-11T13:12:29.039Z,1.40
2018-11-11T13:13:32.284Z,1.57
2018-11-11T13:14:35.607Z,1.70
2018-11-11T13:15:38.934Z,2.33
2018-11-11T13:16:42.295Z,1.55
2018-11-11T13:17:45.676Z,1.60
2018-11-11T13:18:49.005Z,1.50
2018-11-11T13:19:52.342Z,1.30
2018-11-11T13:20:55.684Z,1.30
2018-11-11T13:21:59.010Z,1.40
2018-11-11T13:23:02.429Z,1.50
2018-11-11T13:24:06.249Z,1.50
2018-11-11T13:25:10.976Z,1.55
2018-11-11T13:26:14.315Z,1.60
2018-11-11T13:27:17.654Z,1.70
2018-11-11T13:28:21.025Z,1.77
2018-11-11T13:29:24.379Z,1.47
2018-11-11T13:30:27.699Z,1.60
2018-11-11T13:31:31.082Z,1.65
2018-11-11T13:32:34.420Z,1.82
2018-11-11T13:33:37.780Z,1.47
2018-11-11T13:34:41.091Z,2.17
2018-11-11T13:35:44.415Z,1.40
2018-11-11T13:36:47.733Z,1.40
2018-11-11T13:37:51.078Z,1.07
2018-11-11T13:38:54.433Z,1.70
2018-11-11T13:39:57.759Z,2.00
2018-11-11T13:41:01.071Z,2.15
2018-11-11T13:42:04.467Z,1.80
2018-11-11T13:43:07.816Z,1.50
2018-11-11T13:44:11.117Z,1.82
2018-11-11T13:45:16.668Z,2.42
2018-11-11T13:46:20.116Z,1.50
2018-11-11T13:47:23.343Z,1.40
2018-11-11T13:48:26.666Z,1.50
2018-11-11T13:49:30.016Z,3.10
2018-11-11T13:50:33.324Z,1.65
2018-11-11T13:51:37.421Z,2.37
2018-11-11T13:52:40.751Z,1.72
2018-11-11T13:53:44.068Z,1.40
2018-11-11T13:54:47.438Z,2.37
2018-11-11T13:55:50.776Z,1.30
2018-11-11T13:56:54.112Z,1.32
2018-11-11T13:57:57.476Z,1.52
2018-11-11T13:59:00.803Z,1.77
2018-11-11T14:00:05.221Z,1.40
2018-11-11T14:01:08.551Z,1.40
2018-11-11T14:02:11.862Z,1.27
2018-11-11T14:03:15.223Z,1.32
2018-11-11T14:04:18.561Z,1.40
2018-11-11T14:05:22.003Z,1.40
2018-11-11T14:06:25.361Z,1.60
2018-11-11T14:07:28.746Z,1.65
2018-11-11T14:08:32.119Z,1.22